Flight Track Log - Related Links

Times and Time Zones

All times are in EDT time to prevent confusion due to time zone crossing. See the AAL832 flight status page for this flight to view local times or setup timezone preferences in your user account.

Time Position Orientation Groundspeed Altitude Reporting Facility
EDT Latitude Longitude Course Direction KTS MPH feet Rate Location/Type
Tue 06:01:45 PM 41.9667 -87.9333 189° South 171 197 1,900  Level Chicago TRACON
Tue 06:02:45 PM 41.9333 -87.9833 228° Southwest 204 235 4,000 1,895 Climbing Chicago TRACON
Tue 06:03:00 PM 41.7645 -87.7797 180° South  Level Estimated
Tue 06:03:39 PM 41.8833 -88.0167 206° Southwest 254 292 5,500  Level Chicago TRACON
Tue 06:04:00 PM 41.6559 -87.7165 180° South  Level Estimated
Tue 06:04:25 PM 41.8311 -88.0097 174° South 251 289 7,800  Level Chicago Center
Tue 06:05:00 PM 41.5473 -87.6535 176° South  Level Estimated
Tue 06:05:27 PM 41.7439 -87.9831 167° South 266 306 11,600  Level Chicago Center
Tue 06:06:00 PM 41.4386 -87.5908 189° South  Level Estimated
Tue 06:06:29 PM 41.6653 -87.9578 166° South 287 330 14,500  Level Chicago Center
Tue 06:07:31 PM 41.5722 -87.9281 167° South 344 396 16,100 2,081 Climbing Chicago Center
Tue 06:08:33 PM 41.4683 -87.8958 167° South 373 429 18,800 2,400 Climbing Chicago Center
Tue 06:09:36 PM 41.3542 -87.8839 176° South 409 471 21,100 2,208 Climbing Chicago Center
Tue 06:10:38 PM 41.2361 -87.8928 183° South 418 481 23,400 2,226 Climbing Chicago Center
Tue 06:11:40 PM 41.1153 -87.8897 179° South 429 494 25,700 2,081 Climbing Chicago Center
Tue 06:12:42 PM 40.9925 -87.8847 178° South 438 504 27,700 1,887 Climbing Chicago Center
Tue 06:13:44 PM 40.8397 -87.8783 178° South 456 525 29,600 1,694 Climbing Chicago Center
Tue 06:14:46 PM 40.7097 -87.8753 179° South 467 537 31,200 1,790 Climbing Chicago Center
Tue 06:15:48 PM 40.5794 -87.8708 179° South 469 540 33,300 1,887 Climbing Chicago Center
Tue 06:16:50 PM 40.4506 -87.8667 179° South 466 536 35,100 1,729 Climbing Chicago Center
Tue 06:17:46 PM 40.3269 -87.8611 178° South 464 534 36,700 1,119 Climbing Indianapolis Center
Tue 06:18:48 PM 40.2008 -87.8283 169° South 461 531 37,300 629 Climbing Indianapolis Center
Tue 06:19:50 PM 40.0553 -87.7847 167° South 458 527 38,000 339 Climbing Indianapolis Center
Tue 06:20:52 PM 39.9308 -87.7475 167° South 457 526 38,000  Level Indianapolis Center
Tue 06:21:54 PM 39.8058 -87.7108 167° South 459 528 38,000 484 Level Indianapolis Center
Tue 06:22:56 PM 39.6797 -87.6736 167° South 461 531 39,000 484 Climbing Indianapolis Center
Tue 06:23:58 PM 39.5550 -87.6375 167° South 458 527 39,000  Level Indianapolis Center
Tue 06:25:00 PM 39.4300 -87.6011 167° South 458 527 39,000  Level Indianapolis Center
Tue 06:26:02 PM 39.2831 -87.5586 167° South 461 531 39,000  Level Indianapolis Center
Tue 06:27:04 PM 39.1567 -87.5222 167° South 464 534 39,000  Level Indianapolis Center
Tue 06:28:06 PM 39.0392 -87.4872 167° South 464 534 39,000  Level Indianapolis Center
Tue 06:29:09 PM 38.9128 -87.4497 167° South 465 535 39,000  Level Indianapolis Center
Tue 06:30:10 PM 38.7856 -87.4150 168° South 466 536 39,000  Level Indianapolis Center
Tue 06:31:12 PM 38.6342 -87.3714 167° South 464 534 39,000  Level Indianapolis Center
Tue 06:32:14 PM 38.5072 -87.3356 168° South 466 536 39,000  Level Indianapolis Center
Tue 06:33:16 PM 38.3833 -87.3006 168° South 461 531 39,000  Level Indianapolis Center
Tue 06:34:19 PM 38.2603 -87.2664 168° South 462 532 39,000  Level Indianapolis Center
Tue 06:35:21 PM 38.1131 -87.2247 167° South 458 527 39,000  Level Indianapolis Center
Tue 06:36:23 PM 37.9894 -87.1897 167° South 458 527 39,000  Level Indianapolis Center
Tue 06:37:25 PM 37.8661 -87.1542 167° South 456 525 39,000  Level Indianapolis Center
Tue 06:38:27 PM 37.7419 -87.1197 168° South 456 525 39,000  Level Indianapolis Center
Tue 06:39:29 PM 37.6158 -87.0842 167° South 460 529 39,000  Level Indianapolis Center
Tue 06:40:33 PM 37.4792 -87.0458 167° South 453 521 39,000  Level Memphis Center
Tue 06:41:33 PM 37.3556 -87.0119 168° South 460 529 39,000  Level Memphis Center
Tue 06:42:33 PM 37.2297 -86.9781 168° South 460 529 39,000  Level Memphis Center
Tue 06:43:33 PM 37.0931 -86.9422 168° South 453 521 39,000  Level Memphis Center
Tue 06:44:33 PM 36.9736 -86.9086 167° South 448 516 39,000  Level Memphis Center
Tue 06:45:33 PM 36.8517 -86.8750 168° South 448 516 39,000  Level Memphis Center
Tue 06:46:33 PM 36.7319 -86.8439 168° South 448 516 39,000  Level Memphis Center
Tue 06:47:33 PM 36.6103 -86.8103 167° South 448 516 39,000  Level Memphis Center
Tue 06:48:33 PM 36.4925 -86.7742 166° South 448 516 39,000  Level Memphis Center
Tue 06:49:33 PM 36.3664 -86.7436 169° South 454 522 39,000  Level Memphis Center
Tue 06:50:33 PM 36.2550 -86.7100 166° South 449 517 39,000  Level Memphis Center
Tue 06:51:33 PM 36.1331 -86.6744 167° South 449 517 39,000  Level Memphis Center
Tue 06:52:33 PM 36.0153 -86.5744 146° Southeast 472 543 39,000  Level Memphis Center
Tue 06:54:43 PM 35.7842 -86.3581 143° Southeast 492 566 39,000  Level Atlanta Center
Tue 06:55:43 PM 35.6733 -86.2550 143° Southeast 492 566 39,000 -300 Level Atlanta Center
Tue 06:56:43 PM 35.5644 -86.1578 144° Southeast 492 566 38,400 -900 Descending Atlanta Center
Tue 06:57:43 PM 35.4575 -86.0581 143° Southeast 492 566 37,200 -1,400 Descending Atlanta Center
Tue 06:58:43 PM 35.3486 -85.9561 143° Southeast 498 573 35,600 -1,950 Descending Atlanta Center
Tue 06:59:43 PM 35.2375 -85.8569 144° Southeast 498 573 33,300 -2,100 Descending Atlanta Center
Tue 07:00:43 PM 35.1306 -85.7581 143° Southeast 498 573 31,400 -1,850 Descending Atlanta Center
Tue 07:01:43 PM 35.0211 -85.6569 143° Southeast 498 573 29,600 -2,050 Descending Atlanta Center
Tue 07:02:43 PM 34.9242 -85.5714 144° Southeast 493 567 27,300 -1,300 Descending Atlanta Center
Tue 07:03:43 PM 34.8189 -85.4783 144° Southeast 488 562 27,000 -150 Descending Atlanta Center
Tue 07:04:43 PM 34.7156 -85.3856 144° Southeast 476 548 27,000  Level Atlanta Center
Tue 07:05:43 PM 34.6122 -85.2956 144° Southeast 470 541 27,000  Level Atlanta Center
Tue 07:06:43 PM 34.5089 -85.2033 144° Southeast 470 541 27,000  Level Atlanta Center
Tue 07:07:43 PM 34.4094 -85.1139 143° Southeast 470 541 27,000  Level Atlanta Center
Tue 07:08:43 PM 34.3058 -85.0244 144° Southeast 470 541 27,000  Level Atlanta Center
Tue 07:09:43 PM 34.2022 -84.9356 145° Southeast 470 541 27,000  Level Atlanta Center
Tue 07:10:43 PM 34.1006 -84.8442 143° Southeast 465 535 27,000  Level Atlanta Center
Tue 07:11:43 PM 33.9967 -84.7553 145° Southeast 470 541 27,000  Level Atlanta Center
Tue 07:12:43 PM 33.8928 -84.6669 145° Southeast 465 535 27,000  Level Atlanta Center
Tue 07:13:43 PM 33.7931 -84.5761 143° Southeast 465 535 27,000  Level Atlanta Center
Tue 07:14:43 PM 33.6767 -84.4781 145° Southeast 459 528 27,000  Level Atlanta Center
Tue 07:15:43 PM 33.5767 -84.4128 151° Southeast 464 534 27,000  Level Atlanta Center
Tue 07:16:43 PM 33.4578 -84.3650 161° South 458 527 27,000  Level Atlanta Center
Tue 07:17:43 PM 33.3369 -84.3122 160° South 458 527 27,000  Level Atlanta Center
Tue 07:18:43 PM 33.2158 -84.2622 161° South 463 533 27,000  Level Atlanta Center
Tue 07:19:43 PM 33.0928 -84.2150 162° South 463 533 27,000  Level Atlanta Center
Tue 07:20:43 PM 32.9739 -84.1625 160° South 463 533 27,000  Level Atlanta Center
Tue 07:21:43 PM 32.8528 -84.1106 160° South 463 533 27,000  Level Atlanta Center
Tue 07:22:43 PM 32.7297 -84.0636 162° South 463 533 27,000  Level Atlanta Center
Tue 07:23:43 PM 32.6067 -84.0117 160° South 463 533 27,000  Level Atlanta Center
Tue 07:24:43 PM 32.4856 -83.9625 161° South 463 533 27,000  Level Atlanta Center
Tue 07:25:43 PM 32.3622 -83.9108 161° South 463 533 27,000  Level Atlanta Center
Tue 07:26:43 PM 32.2308 -83.8572 161° South 463 533 27,000  Level Atlanta Center
Tue 07:27:40 PM 32.1153 -83.8100 161° South 462 532 27,000  Level Jacksonville Center
Tue 07:28:40 PM 31.9925 -83.7597 161° South 478 550 27,000  Level Jacksonville Center
Tue 07:29:40 PM 31.8717 -83.7047 159° South 478 550 27,000  Level Jacksonville Center
Tue 07:30:40 PM 31.7467 -83.6597 163° South 472 543 27,000  Level Jacksonville Center
Tue 07:31:40 PM 31.6258 -83.6050 159° South 478 550 27,000  Level Jacksonville Center
Tue 07:32:40 PM 31.5092 -83.5650 164° South 478 550 27,000  Level Jacksonville Center
Tue 07:33:40 PM 31.3842 -83.5156 161° South 478 550 27,000  Level Jacksonville Center
Tue 07:34:40 PM 31.2611 -83.4661 161° South 478 550 27,000  Level Jacksonville Center
Tue 07:35:40 PM 31.1361 -83.4169 161° South 478 550 27,000  Level Jacksonville Center
Tue 07:36:40 PM 31.0131 -83.3678 161° South 478 550 27,000  Level Jacksonville Center
Tue 07:37:40 PM 30.8881 -83.3186 161° South 478 550 27,000  Level Jacksonville Center
Tue 07:38:40 PM 30.7586 -83.2650 160° South 473 544 27,000  Level Jacksonville Center
Tue 07:39:40 PM 30.6358 -83.2039 157° South 468 539 27,000  Level Jacksonville Center
Tue 07:40:40 PM 30.5169 -83.1433 156° South 473 544 27,000  Level Jacksonville Center
Tue 07:41:40 PM 30.3936 -83.0828 157° South 473 544 27,000  Level Jacksonville Center
Tue 07:42:40 PM 30.2706 -83.0225 157° South 473 544 27,000  Level Jacksonville Center
Tue 07:43:40 PM 30.1494 -82.9622 157° South 473 544 27,000  Level Jacksonville Center
Tue 07:44:40 PM 30.0286 -82.9022 157° South 473 544 27,000  Level Jacksonville Center
Tue 07:45:40 PM 29.9053 -82.8422 157° South 473 544 27,000  Level Jacksonville Center
Tue 07:46:40 PM 29.7822 -82.7850 158° South 473 544 27,000  Level Jacksonville Center
Tue 07:47:40 PM 29.6608 -82.7206 155° Southeast 473 544 27,000  Level Jacksonville Center
Tue 07:48:40 PM 29.5378 -82.6633 158° South 473 544 27,000  Level Jacksonville Center
Tue 07:49:40 PM 29.4289 -82.6089 156° South 473 544 27,000  Level Jacksonville Center
Tue 07:50:40 PM 29.3058 -82.5472 156° South 473 544 27,000  Level Jacksonville Center
Tue 07:51:40 PM 29.1844 -82.4883 157° South 473 544 27,000  Level Jacksonville Center
Tue 07:52:40 PM 29.0631 -82.4269 156° South 473 544 27,000  Level Jacksonville Center
Tue 07:53:40 PM 28.9439 -82.3683 157° South 473 544 27,000  Level Jacksonville Center
Tue 07:54:40 PM 28.8247 -82.3119 157° South 473 544 27,000  Level Jacksonville Center
Tue 07:55:40 PM 28.6975 -82.3081 178° South 451 519 27,000  Level Jacksonville Center
Tue 07:56:40 PM 28.5767 -82.3489 197° South 444 511 27,000  Level Jacksonville Center
Tue 07:57:40 PM 28.4536 -82.3872 195° South 449 517 27,000  Level Jacksonville Center
Tue 07:58:40 PM 28.3286 -82.4208 193° South 454 522 27,000  Level Jacksonville Center
Tue 07:59:40 PM 28.2075 -82.4522 193° South 449 517 27,000  Level Jacksonville Center
Tue 08:02:03 PM 27.8986 -82.5300 193° South 452 520 27,000  Level Miami Center
Tue 08:03:03 PM 27.7892 -82.5528 190° South 457 526 27,000  Level Miami Center
Tue 08:04:03 PM 27.6597 -82.5556 181° South 459 528 27,000  Level Miami Center
Tue 08:05:03 PM 27.5231 -82.5325 171° South 458 527 27,000  Level Miami Center
Tue 08:06:03 PM 27.3961 -82.4725 157° South 470 541 27,000  Level Miami Center
Tue 08:07:03 PM 27.2897 -82.4136 154° Southeast 484 557 27,000 -250 Level Miami Center
Tue 08:08:03 PM 27.1697 -82.3308 148° Southeast 476 548 26,500 -950 Descending Miami Center
Tue 08:09:03 PM 27.0628 -82.2325 141° Southeast 481 554 25,100 -1,250 Descending Miami Center
Tue 08:10:03 PM 26.9639 -82.1417 141° Southeast 481 554 24,000 -550 Descending Miami Center
Tue 08:11:03 PM 26.8650 -82.0489 140° Southeast 469 540 24,000  Level Miami Center
Tue 08:12:03 PM 26.7661 -81.9583 141° Southeast 462 532 24,000  Level Miami Center
Tue 08:13:03 PM 26.6669 -81.8681 141° Southeast 462 532 24,000  Level Miami Center
Tue 08:14:03 PM 26.5697 -81.7781 140° Southeast 457 526 24,000  Level Miami Center
Tue 08:15:03 PM 26.4928 -81.7053 140° Southeast 457 526 24,000 -1,000 Level Miami Center
Tue 08:16:03 PM 26.3983 -81.5903 133° Southeast 457 526 22,000 -2,150 Descending Miami Center
Tue 08:17:03 PM 26.3203 -81.4919 132° Southeast 445 512 19,700 -2,300 Descending Miami Center
Tue 08:18:03 PM 26.2419 -81.3942 132° Southeast 428 493 17,400 -2,250 Descending Miami Center
Tue 08:19:03 PM 26.1653 -81.3031 133° Southeast 416 479 15,200 -2,250 Descending Miami Center
Tue 08:20:03 PM 26.0928 -81.2150 133° Southeast 396 456 12,900 -2,000 Descending Miami Center
Tue 08:21:12 PM 26.0061 -81.1100 133° Southeast 358 412 10,900 -1,302 Descending Miami Center
Tue 08:21:49 PM 25.9656 -81.0669 136° Southeast 318 366 10,600 -490 Descending Miami Center
Tue 08:22:50 PM 25.9092 -80.9958 131° Southeast 278 320 10,100 -582 Descending Miami Center
Tue 08:24:03 PM 25.8736 -80.9231 118° Southeast 276 318 9,300 -984 Descending Miami Center
Tue 08:24:58 PM 25.8442 -80.8550 116° Southeast 248 285 8,000 -1,345 Descending Miami Center
Tue 08:25:59 PM 25.8125 -80.7825 116° Southeast 245 282 6,700 -1,248 Descending Miami Center
Tue 08:27:03 PM 25.7914 -80.7172 110° East 239 275 5,400 -1,161 Descending Miami Center
Tue 08:28:03 PM 25.7744 -80.6497 106° East 239 275 4,300 -1,100 Descending Miami Center
Tue 08:29:03 PM 25.7742 -80.5758 90° East 229 264 3,200 -650 Descending Miami Center
Tue 08:30:03 PM 25.7758 -80.5069 88° East 223 257 3,000 -500 Descending Miami Center
Tue 08:31:03 PM 25.7817 -80.4378 85° East 214 246 2,200 -800 Descending Miami Center

Login

Don't have an account? Register now (free) for customized features, flight alerts, and more!